createdAt,value
2022-12-16T00:02:01.504Z,-1.72
2022-12-16T00:07:02.991Z,-1.65
2022-12-16T00:12:04.671Z,-1.65
2022-12-16T00:17:06.190Z,-1.65
2022-12-16T00:22:07.631Z,-1.62
2022-12-16T00:27:09.689Z,-1.60
2022-12-16T00:32:11.018Z,-1.57
2022-12-16T00:37:13.307Z,-1.56
2022-12-16T00:42:14.641Z,-1.52
2022-12-16T00:47:15.958Z,-1.53
2022-12-16T00:52:17.299Z,-1.49
2022-12-16T00:57:18.712Z,-1.51
2022-12-16T01:02:20.155Z,-1.53
2022-12-16T01:07:21.677Z,-1.48
2022-12-16T01:12:23.975Z,-1.44
2022-12-16T01:17:25.997Z,-1.45
2022-12-16T01:22:30.401Z,-1.43
2022-12-16T01:27:31.900Z,-1.35
2022-12-16T01:32:33.294Z,-1.36
2022-12-16T01:37:34.692Z,-1.41
2022-12-16T01:42:36.083Z,-1.39
2022-12-16T01:47:37.650Z,-1.42
2022-12-16T01:52:45.058Z,-1.42
2022-12-16T01:57:55.128Z,-1.44
2022-12-16T02:02:58.278Z,-1.43
2022-12-16T02:08:10.483Z,-1.39
2022-12-16T02:13:26.676Z,-1.42
2022-12-16T02:18:58.304Z,-1.37
2022-12-16T02:24:18.129Z,-1.36
2022-12-16T02:29:33.745Z,-1.31
2022-12-16T02:34:49.384Z,-1.27
2022-12-16T02:39:58.612Z,-1.26
2022-12-16T02:45:18.012Z,-1.26
2022-12-16T02:50:34.871Z,-1.24
2022-12-16T02:55:45.892Z,-1.27
2022-12-16T03:01:17.350Z,-1.27
2022-12-16T03:06:21.835Z,-1.21
2022-12-16T03:11:27.637Z,-1.20
2022-12-16T03:16:32.339Z,-1.17
2022-12-16T03:21:44.889Z,-1.07
2022-12-16T03:26:55.761Z,-1.00
2022-12-16T03:31:58.243Z,-0.98
2022-12-16T03:37:04.028Z,-0.89
2022-12-16T03:42:07.058Z,-0.85
2022-12-16T03:47:08.425Z,-0.76
2022-12-16T03:52:09.936Z,-0.76
2022-12-16T03:57:15.236Z,-0.68
2022-12-16T04:02:17.060Z,-0.62
2022-12-16T04:07:21.228Z,-0.60
2022-12-16T04:12:40.997Z,-0.60
2022-12-16T04:18:01.564Z,-0.63
2022-12-16T04:23:23.026Z,-0.60
2022-12-16T04:28:24.364Z,-0.66
2022-12-16T04:33:44.507Z,-0.65
2022-12-16T04:39:04.575Z,-0.63
2022-12-16T04:44:24.487Z,-0.60
2022-12-16T04:49:44.851Z,-0.56
2022-12-16T04:55:04.598Z,-0.55
2022-12-16T05:00:25.494Z,-0.52
2022-12-16T05:05:45.135Z,-0.46
2022-12-16T05:11:05.094Z,-0.41
2022-12-16T05:16:25.323Z,-0.44
2022-12-16T05:21:45.161Z,-0.48
2022-12-16T05:27:04.902Z,-0.53
2022-12-16T05:32:24.716Z,-0.56
2022-12-16T05:37:45.023Z,-0.58
2022-12-16T05:43:09.816Z,-0.61
2022-12-16T05:48:32.167Z,-0.70
2022-12-16T05:53:51.899Z,-0.85
2022-12-16T05:59:11.799Z,-0.96
2022-12-16T06:04:31.615Z,-1.08
2022-12-16T06:09:56.300Z,-1.18
2022-12-16T06:15:16.557Z,-1.26
2022-12-16T06:20:36.406Z,-1.40
2022-12-16T06:25:56.729Z,-1.56
2022-12-16T06:31:16.590Z,-1.62
2022-12-16T06:36:36.550Z,-1.66
2022-12-16T06:41:56.371Z,-1.71
2022-12-16T06:47:16.134Z,-1.71
2022-12-16T06:52:35.937Z,-1.73
2022-12-16T06:57:55.930Z,-1.72
2022-12-16T07:03:16.102Z,-1.65
2022-12-16T07:08:35.959Z,-1.56
2022-12-16T07:13:55.951Z,-1.53
2022-12-16T07:19:16.361Z,-1.51
2022-12-16T07:24:36.484Z,-1.52
2022-12-16T07:29:56.211Z,-1.46
2022-12-16T07:35:16.138Z,-1.32
2022-12-16T07:40:35.892Z,-1.24
2022-12-16T07:45:56.028Z,-1.20
2022-12-16T07:51:16.090Z,-1.20
2022-12-16T07:56:36.462Z,-1.20
2022-12-16T08:01:56.297Z,-1.20
2022-12-16T08:07:16.115Z,-1.23
2022-12-16T08:12:36.198Z,-1.25
2022-12-16T08:17:55.992Z,-1.33
2022-12-16T08:23:15.808Z,-1.43
2022-12-16T08:28:35.695Z,-1.46
2022-12-16T08:33:55.805Z,-1.37
2022-12-16T08:39:15.672Z,-1.22
2022-12-16T08:44:35.628Z,-1.05
2022-12-16T08:49:57.832Z,-0.86
2022-12-16T08:55:27.683Z,-0.71
2022-12-16T09:00:49.454Z,-0.54
2022-12-16T09:06:09.347Z,-0.53
2022-12-16T09:11:29.098Z,-0.45
2022-12-16T09:16:49.232Z,-0.41
2022-12-16T09:22:09.114Z,-0.34
2022-12-16T09:27:29.335Z,-0.25
2022-12-16T09:32:49.387Z,-0.23
2022-12-16T09:38:09.716Z,-0.17
2022-12-16T09:43:54.643Z,-0.09
2022-12-16T09:49:24.605Z,-0.05
2022-12-16T09:54:47.883Z,0.04
2022-12-16T10:00:20.604Z,0.07
2022-12-16T10:05:52.314Z,0.16
2022-12-16T10:11:25.511Z,0.28
2022-12-16T10:17:10.649Z,0.36
2022-12-16T10:22:45.712Z,0.39
2022-12-16T10:28:07.583Z,0.38
2022-12-16T10:33:33.061Z,0.51
2022-12-16T10:38:58.211Z,0.64
2022-12-16T10:44:19.189Z,0.68
2022-12-16T10:49:39.373Z,0.70
2022-12-16T10:55:05.643Z,0.73
2022-12-16T11:00:38.428Z,0.73
2022-12-16T11:05:58.504Z,0.89
2022-12-16T11:11:31.796Z,0.97
2022-12-16T11:16:51.722Z,0.97
2022-12-16T11:22:25.175Z,0.99
2022-12-16T11:27:45.513Z,0.98
2022-12-16T11:33:09.883Z,1.10
2022-12-16T11:38:58.904Z,1.27
2022-12-16T11:44:21.197Z,1.31
2022-12-16T11:49:48.584Z,1.34
2022-12-16T11:56:04.031Z,1.39
2022-12-16T12:01:45.034Z,1.35
2022-12-16T12:07:50.835Z,1.34
2022-12-16T12:13:20.440Z,1.45
2022-12-16T12:18:56.535Z,1.51
2022-12-16T12:24:33.358Z,1.52
2022-12-16T12:30:16.557Z,1.49
2022-12-16T12:36:05.184Z,1.62
2022-12-16T12:41:37.098Z,1.59
2022-12-16T12:47:07.637Z,1.71
2022-12-16T12:52:45.486Z,1.70
2022-12-16T12:58:09.273Z,1.74
2022-12-16T13:03:55.805Z,1.71
2022-12-16T13:09:18.165Z,1.82
2022-12-16T13:15:10.512Z,1.83
2022-12-16T13:20:52.346Z,1.88
2022-12-16T13:26:23.261Z,1.91
2022-12-16T13:31:45.198Z,1.93
2022-12-16T13:37:12.417Z,1.94
2022-12-16T13:42:53.405Z,1.94
2022-12-16T13:48:13.237Z,1.81
2022-12-16T13:53:35.479Z,1.74
2022-12-16T13:59:17.832Z,1.62
2022-12-16T14:04:45.212Z,1.49
2022-12-16T14:10:07.683Z,1.39
2022-12-16T14:15:44.609Z,1.33
2022-12-16T14:21:17.935Z,1.32
2022-12-16T14:26:38.682Z,1.28
2022-12-16T14:32:01.465Z,1.08
2022-12-16T14:37:42.878Z,1.06
2022-12-16T14:43:05.307Z,0.98
2022-12-16T14:48:49.823Z,0.98
2022-12-16T14:54:10.133Z,0.93
2022-12-16T14:59:32.046Z,0.91
2022-12-16T15:04:52.002Z,0.83
2022-12-16T15:10:14.287Z,0.83
2022-12-16T15:15:41.581Z,0.76
2022-12-16T15:21:13.318Z,0.68
2022-12-16T15:26:38.332Z,0.60
2022-12-16T15:32:03.349Z,0.54
2022-12-16T15:37:34.610Z,0.48
2022-12-16T15:42:54.865Z,0.47
2022-12-16T15:48:15.279Z,0.42
2022-12-16T15:53:47.514Z,0.34
2022-12-16T15:59:07.685Z,0.28
2022-12-16T16:04:39.278Z,0.18
2022-12-16T16:09:59.021Z,0.16
2022-12-16T16:15:19.583Z,0.09
2022-12-16T16:20:39.388Z,0.02
2022-12-16T16:26:03.651Z,-0.07
2022-12-16T16:31:24.336Z,-0.16
2022-12-16T16:36:44.585Z,-0.17
2022-12-16T16:42:04.570Z,-0.22
2022-12-16T16:47:33.547Z,-0.31
2022-12-16T16:52:53.266Z,-0.35
2022-12-16T16:58:12.992Z,-0.45
2022-12-16T17:03:34.039Z,-0.53
2022-12-16T17:08:54.825Z,-0.55
2022-12-16T17:14:14.790Z,-0.64
2022-12-16T17:19:34.638Z,-0.73
2022-12-16T17:24:54.835Z,-0.72
2022-12-16T17:30:14.971Z,-0.71
2022-12-16T17:35:34.737Z,-0.75
2022-12-16T17:40:54.607Z,-0.74
2022-12-16T17:46:25.791Z,-0.69
2022-12-16T17:51:45.913Z,-0.66
2022-12-16T17:57:06.046Z,-0.69
2022-12-16T18:02:31.646Z,-0.70
2022-12-16T18:07:51.828Z,-0.73
2022-12-16T18:13:14.158Z,-0.78
2022-12-16T18:18:34.330Z,-0.81
2022-12-16T18:23:54.426Z,-0.92
2022-12-16T18:29:14.594Z,-0.90
2022-12-16T18:34:34.866Z,-0.92
2022-12-16T18:39:54.675Z,-0.98
2022-12-16T18:45:14.767Z,-1.06
2022-12-16T18:50:37.971Z,-1.17
2022-12-16T18:55:58.243Z,-1.29
2022-12-16T19:01:21.116Z,-1.44
2022-12-16T19:06:41.189Z,-1.54
2022-12-16T19:12:01.240Z,-1.69
2022-12-16T19:17:21.706Z,-1.82
2022-12-16T19:22:41.460Z,-1.97
2022-12-16T19:28:01.290Z,-2.12
2022-12-16T19:33:21.349Z,-2.21
2022-12-16T19:38:41.194Z,-2.29
2022-12-16T19:49:44.405Z,-2.46
2022-12-16T19:55:04.801Z,-2.55
2022-12-16T20:00:25.419Z,-2.63
2022-12-16T20:05:45.577Z,-2.71
2022-12-16T20:11:05.420Z,-2.77
2022-12-16T20:16:27.951Z,-2.85
2022-12-16T20:21:49.079Z,-2.88
2022-12-16T20:27:09.581Z,-2.90
2022-12-16T20:32:29.334Z,-2.93
2022-12-16T20:37:49.239Z,-2.96
2022-12-16T20:43:09.066Z,-3.03
2022-12-16T20:48:33.455Z,-3.07
2022-12-16T20:53:53.743Z,-3.09
2022-12-16T20:59:16.701Z,-3.15
2022-12-16T21:04:36.519Z,-3.22
2022-12-16T21:09:56.241Z,-3.33
2022-12-16T21:14:28.351Z,-2.41
2022-12-16T21:15:16.244Z,-3.31
2022-12-16T21:20:36.473Z,-3.36
2022-12-16T21:25:56.256Z,-3.39
2022-12-16T21:31:17.930Z,-3.46
2022-12-16T21:36:38.072Z,-3.51
2022-12-16T21:41:58.127Z,-3.55
2022-12-16T21:47:17.980Z,-3.58
2022-12-16T21:52:37.756Z,-3.64
2022-12-16T21:57:57.620Z,-3.62
2022-12-16T22:03:17.349Z,-3.66
2022-12-16T22:08:37.262Z,-3.71
2022-12-16T22:13:57.095Z,-3.75
2022-12-16T22:19:16.995Z,-3.80
2022-12-16T22:24:36.974Z,-3.85
2022-12-16T22:29:56.904Z,-3.88
2022-12-16T22:35:16.854Z,-3.93
2022-12-16T22:40:37.095Z,-4.00
2022-12-16T22:45:56.859Z,-4.03
2022-12-16T22:51:16.689Z,-4.06
2022-12-16T22:56:36.570Z,-4.08
2022-12-16T23:02:10.144Z,-4.08
2022-12-16T23:07:30.412Z,-4.14
2022-12-16T23:12:50.690Z,-4.21
2022-12-16T23:18:11.773Z,-4.26
2022-12-16T23:23:31.538Z,-4.24
2022-12-16T23:28:51.386Z,-4.27
2022-12-16T23:34:12.153Z,-4.28
2022-12-16T23:41:17.878Z,-4.30
2022-12-16T23:46:37.794Z,-4.34
2022-12-16T23:51:57.873Z,-4.32
2022-12-16T23:57:17.692Z,-4.34
